Terminal Aerodrome Forecast
Issued by NWS

Home | Current Version | Previous Version | Text Only | Print | Product List | Glossary On
Versions: 1 2 3 4 5 6 7 8 9 10 11 12 13 14 15 16 17 18 19 20 21 22 23 24 25 26
000
FTUS43 KDVN 240100 AAA
TAFBRL
TAF AMD
KBRL 240146Z 2402/2424 23003KT 1/4SM FG VV002
      TEMPO 2402/2404 1/2SM -DZ FG OVC002
     FM240400 12003KT 2SM -DZ BR OVC002
     FM240600 31014G20KT 3SM -RA BR OVC008
     FM241400 32018G27KT 1SM -SN BR OVC007
     FM241800 28017G26KT P6SM OVC025=

USA.gov is the U.S. government's official web portal to all federal, state and local government web resources and services.